sensor_id;sensor_type;location;lat;lon;timestamp;temperature;humidity
6439;DHT22;3252;52.540;13.290;2024-01-16T00:01:42;18.60;92.90
6439;DHT22;3252;52.540;13.290;2024-01-16T00:03:44;18.60;93.00
6439;DHT22;3252;52.540;13.290;2024-01-16T00:05:46;18.60;93.00
6439;DHT22;3252;52.540;13.290;2024-01-16T00:07:49;18.60;93.00
6439;DHT22;3252;52.540;13.290;2024-01-16T00:09:50;18.60;93.00
6439;DHT22;3252;52.540;13.290;2024-01-16T00:11:54;18.60;93.00
6439;DHT22;3252;52.540;13.290;2024-01-16T00:13:56;18.60;93.10
6439;DHT22;3252;52.540;13.290;2024-01-16T00:15:59;18.50;93.10
6439;DHT22;3252;52.540;13.290;2024-01-16T00:18:03;18.50;93.20
6439;DHT22;3252;52.540;13.290;2024-01-16T00:20:05;18.50;93.20
6439;DHT22;3252;52.540;13.290;2024-01-16T00:22:08;18.50;93.20
6439;DHT22;3252;52.540;13.290;2024-01-16T00:24:09;18.40;93.30
6439;DHT22;3252;52.540;13.290;2024-01-16T00:26:19;18.40;93.30
6439;DHT22;3252;52.540;13.290;2024-01-16T00:28:22;18.40;93.40
6439;DHT22;3252;52.540;13.290;2024-01-16T00:30:24;18.40;93.40
6439;DHT22;3252;52.540;13.290;2024-01-16T00:32:26;18.40;93.50
6439;DHT22;3252;52.540;13.290;2024-01-16T00:34:28;18.30;93.40
6439;DHT22;3252;52.540;13.290;2024-01-16T00:36:30;18.30;93.50
6439;DHT22;3252;52.540;13.290;2024-01-16T00:38:33;18.30;93.50
6439;DHT22;3252;52.540;13.290;2024-01-16T00:40:35;18.30;93.50
6439;DHT22;3252;52.540;13.290;2024-01-16T00:42:37;18.30;93.60
6439;DHT22;3252;52.540;13.290;2024-01-16T00:44:39;18.30;93.60
6439;DHT22;3252;52.540;13.290;2024-01-16T00:46:42;18.30;93.60
6439;DHT22;3252;52.540;13.290;2024-01-16T00:48:45;18.20;93.60
6439;DHT22;3252;52.540;13.290;2024-01-16T00:50:47;18.20;93.60
6439;DHT22;3252;52.540;13.290;2024-01-16T00:52:50;18.30;93.70
6439;DHT22;3252;52.540;13.290;2024-01-16T00:54:52;18.20;93.60
6439;DHT22;3252;52.540;13.290;2024-01-16T00:56:54;18.20;93.70
6439;DHT22;3252;52.540;13.290;2024-01-16T00:59:00;18.20;93.70
6439;DHT22;3252;52.540;13.290;2024-01-16T01:01:02;18.20;93.70
6439;DHT22;3252;52.540;13.290;2024-01-16T01:03:06;18.20;93.70
6439;DHT22;3252;52.540;13.290;2024-01-16T01:05:08;18.20;93.80
6439;DHT22;3252;52.540;13.290;2024-01-16T01:07:13;18.20;93.80
6439;DHT22;3252;52.540;13.290;2024-01-16T01:09:16;18.20;93.80
6439;DHT22;3252;52.540;13.290;2024-01-16T01:11:18;18.20;93.80
6439;DHT22;3252;52.540;13.290;2024-01-16T01:13:20;18.20;93.80
6439;DHT22;3252;52.540;13.290;2024-01-16T01:15:23;18.10;93.80
6439;DHT22;3252;52.540;13.290;2024-01-16T01:17:25;18.10;93.80
6439;DHT22;3252;52.540;13.290;2024-01-16T01:19:28;18.10;93.80
6439;DHT22;3252;52.540;13.290;2024-01-16T01:21:30;18.10;93.80
6439;DHT22;3252;52.540;13.290;2024-01-16T01:23:32;18.10;93.80
6439;DHT22;3252;52.540;13.290;2024-01-16T01:25:34;18.10;93.90
6439;DHT22;3252;52.540;13.290;2024-01-16T01:27:36;18.10;93.90
6439;DHT22;3252;52.540;13.290;2024-01-16T01:29:38;18.10;93.90
6439;DHT22;3252;52.540;13.290;2024-01-16T01:31:40;18.10;93.90
6439;DHT22;3252;52.540;13.290;2024-01-16T01:33:42;18.10;93.90
6439;DHT22;3252;52.540;13.290;2024-01-16T01:35:46;18.10;93.90
6439;DHT22;3252;52.540;13.290;2024-01-16T01:37:48;18.10;93.90
6439;DHT22;3252;52.540;13.290;2024-01-16T01:39:50;18.00;93.90
6439;DHT22;3252;52.540;13.290;2024-01-16T01:41:52;18.00;93.90
6439;DHT22;3252;52.540;13.290;2024-01-16T01:43:54;18.00;93.90
6439;DHT22;3252;52.540;13.290;2024-01-16T01:46:09;18.00;94.00
6439;DHT22;3252;52.540;13.290;2024-01-16T01:48:11;18.00;94.00
6439;DHT22;3252;52.540;13.290;2024-01-16T01:50:14;18.00;94.00
6439;DHT22;3252;52.540;13.290;2024-01-16T01:52:18;18.00;94.00
6439;DHT22;3252;52.540;13.290;2024-01-16T01:54:21;18.00;94.00
6439;DHT22;3252;52.540;13.290;2024-01-16T01:56:23;18.00;94.00
6439;DHT22;3252;52.540;13.290;2024-01-16T01:58:25;18.00;94.00
6439;DHT22;3252;52.540;13.290;2024-01-16T02:00:26;18.00;94.00
6439;DHT22;3252;52.540;13.290;2024-01-16T02:02:29;17.90;94.00
6439;DHT22;3252;52.540;13.290;2024-01-16T02:04:31;17.90;94.00
6439;DHT22;3252;52.540;13.290;2024-01-16T02:06:33;17.90;94.00
6439;DHT22;3252;52.540;13.290;2024-01-16T02:08:37;17.90;94.00
6439;DHT22;3252;52.540;13.290;2024-01-16T02:10:42;17.90;94.10
6439;DHT22;3252;52.540;13.290;2024-01-16T02:12:48;17.90;94.10
6439;DHT22;3252;52.540;13.290;2024-01-16T02:14:50;17.90;94.10
6439;DHT22;3252;52.540;13.290;2024-01-16T02:16:52;17.90;94.10
6439;DHT22;3252;52.540;13.290;2024-01-16T02:18:54;17.90;94.10
6439;DHT22;3252;52.540;13.290;2024-01-16T02:21:00;17.90;94.10
6439;DHT22;3252;52.540;13.290;2024-01-16T02:23:04;17.80;94.10
6439;DHT22;3252;52.540;13.290;2024-01-16T02:25:07;17.90;94.20
6439;DHT22;3252;52.540;13.290;2024-01-16T02:27:10;17.80;94.10
6439;DHT22;3252;52.540;13.290;2024-01-16T02:29:12;17.80;94.10
6439;DHT22;3252;52.540;13.290;2024-01-16T02:31:14;17.80;94.20
6439;DHT22;3252;52.540;13.290;2024-01-16T02:33:17;17.80;94.20
6439;DHT22;3252;52.540;13.290;2024-01-16T02:35:18;17.80;94.20
6439;DHT22;3252;52.540;13.290;2024-01-16T02:37:21;17.80;94.20
6439;DHT22;3252;52.540;13.290;2024-01-16T02:39:23;17.70;94.20
6439;DHT22;3252;52.540;13.290;2024-01-16T02:41:27;17.70;94.20
6439;DHT22;3252;52.540;13.290;2024-01-16T02:43:28;17.70;94.20
6439;DHT22;3252;52.540;13.290;2024-01-16T02:45:30;17.70;94.20
6439;DHT22;3252;52.540;13.290;2024-01-16T02:47:33;17.70;94.20
6439;DHT22;3252;52.540;13.290;2024-01-16T02:49:35;17.70;94.20
6439;DHT22;3252;52.540;13.290;2024-01-16T02:51:37;17.70;94.20
6439;DHT22;3252;52.540;13.290;2024-01-16T02:53:39;17.70;94.20
6439;DHT22;3252;52.540;13.290;2024-01-16T02:55:42;17.70;94.30
6439;DHT22;3252;52.540;13.290;2024-01-16T02:57:45;17.70;94.30
6439;DHT22;3252;52.540;13.290;2024-01-16T02:59:46;17.70;94.30
6439;DHT22;3252;52.540;13.290;2024-01-16T03:01:48;17.70;94.30
6439;DHT22;3252;52.540;13.290;2024-01-16T03:03:50;17.70;94.30
6439;DHT22;3252;52.540;13.290;2024-01-16T03:05:52;17.70;94.30
6439;DHT22;3252;52.540;13.290;2024-01-16T03:07:53;17.70;94.30
6439;DHT22;3252;52.540;13.290;2024-01-16T03:09:56;17.60;94.30
6439;DHT22;3252;52.540;13.290;2024-01-16T03:11:57;17.60;94.30
6439;DHT22;3252;52.540;13.290;2024-01-16T03:14:00;17.60;94.30
6439;DHT22;3252;52.540;13.290;2024-01-16T03:16:06;17.60;94.40
6439;DHT22;3252;52.540;13.290;2024-01-16T03:18:08;17.60;94.40
6439;DHT22;3252;52.540;13.290;2024-01-16T03:20:12;17.60;94.40
6439;DHT22;3252;52.540;13.290;2024-01-16T03:22:14;17.60;94.40
6439;DHT22;3252;52.540;13.290;2024-01-16T03:24:16;17.60;94.40
6439;DHT22;3252;52.540;13.290;2024-01-16T03:26:18;17.50;94.40
6439;DHT22;3252;52.540;13.290;2024-01-16T03:28:20;17.50;94.40
6439;DHT22;3252;52.540;13.290;2024-01-16T03:30:24;17.50;94.40
6439;DHT22;3252;52.540;13.290;2024-01-16T03:32:26;17.50;94.40
6439;DHT22;3252;52.540;13.290;2024-01-16T03:34:30;17.50;94.40
6439;DHT22;3252;52.540;13.290;2024-01-16T03:36:33;17.50;94.50
6439;DHT22;3252;52.540;13.290;2024-01-16T03:38:35;17.50;94.50
6439;DHT22;3252;52.540;13.290;2024-01-16T03:40:37;17.50;94.50
6439;DHT22;3252;52.540;13.290;2024-01-16T03:42:39;17.50;94.50
6439;DHT22;3252;52.540;13.290;2024-01-16T03:44:41;17.70;94.50
6439;DHT22;3252;52.540;13.290;2024-01-16T03:46:44;17.90;94.20
6439;DHT22;3252;52.540;13.290;2024-01-16T03:48:46;18.10;93.80
6439;DHT22;3252;52.540;13.290;2024-01-16T03:50:48;18.30;93.50
6439;DHT22;3252;52.540;13.290;2024-01-16T03:52:50;18.40;93.10
6439;DHT22;3252;52.540;13.290;2024-01-16T03:54:52;18.50;93.00
6439;DHT22;3252;52.540;13.290;2024-01-16T03:56:54;18.60;92.90
6439;DHT22;3252;52.540;13.290;2024-01-16T03:58:56;18.60;92.80
6439;DHT22;3252;52.540;13.290;2024-01-16T04:00:57;18.70;92.80
6439;DHT22;3252;52.540;13.290;2024-01-16T04:03:01;18.70;92.60
6439;DHT22;3252;52.540;13.290;2024-01-16T04:05:02;18.90;92.40
6439;DHT22;3252;52.540;13.290;2024-01-16T04:07:04;19.10;92.00
6439;DHT22;3252;52.540;13.290;2024-01-16T04:09:07;19.40;91.40
6439;DHT22;3252;52.540;13.290;2024-01-16T04:11:11;19.70;90.80
6439;DHT22;3252;52.540;13.290;2024-01-16T04:13:14;20.00;90.20
6439;DHT22;3252;52.540;13.290;2024-01-16T04:15:17;20.30;89.50
6439;DHT22;3252;52.540;13.290;2024-01-16T04:17:19;20.40;88.60
6439;DHT22;3252;52.540;13.290;2024-01-16T04:19:22;20.60;87.90
6439;DHT22;3252;52.540;13.290;2024-01-16T04:21:23;20.70;87.20
6439;DHT22;3252;52.540;13.290;2024-01-16T04:23:26;20.80;86.70
6439;DHT22;3252;52.540;13.290;2024-01-16T04:25:27;20.90;86.40
6439;DHT22;3252;52.540;13.290;2024-01-16T04:27:29;20.90;86.20
6439;DHT22;3252;52.540;13.290;2024-01-16T04:29:31;21.00;86.20
6439;DHT22;3252;52.540;13.290;2024-01-16T04:31:39;21.00;86.30
6439;DHT22;3252;52.540;13.290;2024-01-16T04:33:41;20.90;86.50
6439;DHT22;3252;52.540;13.290;2024-01-16T04:35:44;20.80;87.00
6439;DHT22;3252;52.540;13.290;2024-01-16T04:37:46;20.70;87.40
6439;DHT22;3252;52.540;13.290;2024-01-16T04:39:48;20.70;87.90
6439;DHT22;3252;52.540;13.290;2024-01-16T04:41:50;20.60;88.10
6439;DHT22;3252;52.540;13.290;2024-01-16T04:43:52;20.60;88.40
6439;DHT22;3252;52.540;13.290;2024-01-16T04:45:55;20.50;88.60
6439;DHT22;3252;52.540;13.290;2024-01-16T04:47:57;20.50;89.00
6439;DHT22;3252;52.540;13.290;2024-01-16T04:50:00;20.50;89.20
6439;DHT22;3252;52.540;13.290;2024-01-16T04:52:04;20.40;89.50
6439;DHT22;3252;52.540;13.290;2024-01-16T04:54:07;20.30;89.80
6439;DHT22;3252;52.540;13.290;2024-01-16T04:56:09;20.30;89.90
6439;DHT22;3252;52.540;13.290;2024-01-16T04:58:10;20.40;89.80
6439;DHT22;3252;52.540;13.290;2024-01-16T05:00:13;20.50;89.10
6439;DHT22;3252;52.540;13.290;2024-01-16T05:02:15;20.80;88.50
6439;DHT22;3252;52.540;13.290;2024-01-16T05:04:18;20.90;87.60
6439;DHT22;3252;52.540;13.290;2024-01-16T05:06:20;21.10;86.90
6439;DHT22;3252;52.540;13.290;2024-01-16T05:08:23;21.20;86.40
6439;DHT22;3252;52.540;13.290;2024-01-16T05:10:25;21.30;85.80
6439;DHT22;3252;52.540;13.290;2024-01-16T05:12:27;21.40;85.50
6439;DHT22;3252;52.540;13.290;2024-01-16T05:14:28;21.40;85.20
6439;DHT22;3252;52.540;13.290;2024-01-16T05:16:30;21.50;85.10
6439;DHT22;3252;52.540;13.290;2024-01-16T05:18:32;21.50;84.90
6439;DHT22;3252;52.540;13.290;2024-01-16T05:20:34;21.60;84.90
6439;DHT22;3252;52.540;13.290;2024-01-16T05:22:36;21.60;85.30
6439;DHT22;3252;52.540;13.290;2024-01-16T05:24:41;21.60;84.60
6439;DHT22;3252;52.540;13.290;2024-01-16T05:26:43;21.70;84.50
6439;DHT22;3252;52.540;13.290;2024-01-16T05:28:45;21.70;84.30
6439;DHT22;3252;52.540;13.290;2024-01-16T05:30:47;21.70;84.40
6439;DHT22;3252;52.540;13.290;2024-01-16T05:32:49;21.70;84.40
6439;DHT22;3252;52.540;13.290;2024-01-16T05:34:50;21.70;84.30
6439;DHT22;3252;52.540;13.290;2024-01-16T05:36:53;21.70;84.40
6439;DHT22;3252;52.540;13.290;2024-01-16T05:38:55;21.70;84.50
6439;DHT22;3252;52.540;13.290;2024-01-16T05:40:59;21.70;84.40
6439;DHT22;3252;52.540;13.290;2024-01-16T05:43:01;21.80;84.60
6439;DHT22;3252;52.540;13.290;2024-01-16T05:45:04;21.80;84.60
6439;DHT22;3252;52.540;13.290;2024-01-16T05:47:06;21.80;84.80
6439;DHT22;3252;52.540;13.290;2024-01-16T05:49:08;21.70;84.80
6439;DHT22;3252;52.540;13.290;2024-01-16T05:51:10;21.80;85.00
6439;DHT22;3252;52.540;13.290;2024-01-16T05:53:12;21.70;84.90
6439;DHT22;3252;52.540;13.290;2024-01-16T05:55:14;21.70;85.20
6439;DHT22;3252;52.540;13.290;2024-01-16T05:57:17;21.70;85.30
6439;DHT22;3252;52.540;13.290;2024-01-16T05:59:19;21.70;86.30
6439;DHT22;3252;52.540;13.290;2024-01-16T06:01:21;21.70;86.10
6439;DHT22;3252;52.540;13.290;2024-01-16T06:03:24;21.60;86.30
6439;DHT22;3252;52.540;13.290;2024-01-16T06:05:26;21.60;86.70
6439;DHT22;3252;52.540;13.290;2024-01-16T06:07:28;21.50;87.40
6439;DHT22;3252;52.540;13.290;2024-01-16T06:09:30;21.40;88.00
6439;DHT22;3252;52.540;13.290;2024-01-16T06:11:33;21.40;89.50
6439;DHT22;3252;52.540;13.290;2024-01-16T06:13:36;21.30;90.30
6439;DHT22;3252;52.540;13.290;2024-01-16T06:15:39;21.20;90.60
6439;DHT22;3252;52.540;13.290;2024-01-16T06:17:41;21.20;91.10
6439;DHT22;3252;52.540;13.290;2024-01-16T06:19:43;21.10;91.40
6439;DHT22;3252;52.540;13.290;2024-01-16T06:21:45;21.00;91.70
6439;DHT22;3252;52.540;13.290;2024-01-16T06:23:47;21.00;92.10
6439;DHT22;3252;52.540;13.290;2024-01-16T06:25:48;20.90;92.50
6439;DHT22;3252;52.540;13.290;2024-01-16T06:27:51;20.90;92.80
6439;DHT22;3252;52.540;13.290;2024-01-16T06:29:54;20.90;92.90
6439;DHT22;3252;52.540;13.290;2024-01-16T06:31:56;20.90;92.90
6439;DHT22;3252;52.540;13.290;2024-01-16T06:33:58;21.00;92.80
6439;DHT22;3252;52.540;13.290;2024-01-16T06:36:01;21.10;92.70
6439;DHT22;3252;52.540;13.290;2024-01-16T06:38:04;21.20;92.60
6439;DHT22;3252;52.540;13.290;2024-01-16T06:40:07;21.20;92.40
6439;DHT22;3252;52.540;13.290;2024-01-16T06:42:10;21.30;92.30
6439;DHT22;3252;52.540;13.290;2024-01-16T06:44:12;21.40;92.30
6439;DHT22;3252;52.540;13.290;2024-01-16T06:46:14;21.40;92.30
6439;DHT22;3252;52.540;13.290;2024-01-16T06:48:16;21.40;92.40
6439;DHT22;3252;52.540;13.290;2024-01-16T06:50:18;21.40;92.40
6439;DHT22;3252;52.540;13.290;2024-01-16T06:52:21;21.30;92.40
6439;DHT22;3252;52.540;13.290;2024-01-16T06:54:23;21.30;92.50
6439;DHT22;3252;52.540;13.290;2024-01-16T06:56:25;21.30;92.60
6439;DHT22;3252;52.540;13.290;2024-01-16T06:58:27;21.20;92.60
6439;DHT22;3252;52.540;13.290;2024-01-16T07:00:28;21.20;92.70
6439;DHT22;3252;52.540;13.290;2024-01-16T07:02:32;21.20;92.80
6439;DHT22;3252;52.540;13.290;2024-01-16T07:04:33;21.10;92.90
6439;DHT22;3252;52.540;13.290;2024-01-16T07:06:35;21.10;92.90
6439;DHT22;3252;52.540;13.290;2024-01-16T07:08:37;21.10;92.90
6439;DHT22;3252;52.540;13.290;2024-01-16T07:10:39;21.20;92.90
6439;DHT22;3252;52.540;13.290;2024-01-16T07:12:41;21.20;93.00
6439;DHT22;3252;52.540;13.290;2024-01-16T07:14:42;21.30;92.70
6439;DHT22;3252;52.540;13.290;2024-01-16T07:16:45;21.30;92.60
6439;DHT22;3252;52.540;13.290;2024-01-16T07:18:48;21.30;92.50
6439;DHT22;3252;52.540;13.290;2024-01-16T07:20:51;21.30;92.50
6439;DHT22;3252;52.540;13.290;2024-01-16T07:22:53;21.30;92.60
6439;DHT22;3252;52.540;13.290;2024-01-16T07:24:55;21.30;92.60
6439;DHT22;3252;52.540;13.290;2024-01-16T07:26:57;21.20;92.60
6439;DHT22;3252;52.540;13.290;2024-01-16T07:28:59;21.20;92.60
6439;DHT22;3252;52.540;13.290;2024-01-16T07:31:01;21.20;92.70
6439;DHT22;3252;52.540;13.290;2024-01-16T07:33:03;21.20;92.60
6439;DHT22;3252;52.540;13.290;2024-01-16T07:35:07;21.20;92.50
6439;DHT22;3252;52.540;13.290;2024-01-16T07:37:09;21.20;92.40
6439;DHT22;3252;52.540;13.290;2024-01-16T07:39:11;21.30;92.40
6439;DHT22;3252;52.540;13.290;2024-01-16T07:41:14;21.30;92.30
6439;DHT22;3252;52.540;13.290;2024-01-16T07:43:17;21.30;92.20
6439;DHT22;3252;52.540;13.290;2024-01-16T07:45:18;21.30;92.20
6439;DHT22;3252;52.540;13.290;2024-01-16T07:47:20;21.30;92.50
6439;DHT22;3252;52.540;13.290;2024-01-16T07:49:22;21.20;92.20
6439;DHT22;3252;52.540;13.290;2024-01-16T07:51:25;21.20;92.20
6439;DHT22;3252;52.540;13.290;2024-01-16T07:53:28;21.20;92.20
6439;DHT22;3252;52.540;13.290;2024-01-16T07:55:30;21.20;92.20
6439;DHT22;3252;52.540;13.290;2024-01-16T07:57:32;21.20;92.40
6439;DHT22;3252;52.540;13.290;2024-01-16T07:59:34;21.20;92.60
6439;DHT22;3252;52.540;13.290;2024-01-16T08:01:37;21.10;92.90
6439;DHT22;3252;52.540;13.290;2024-01-16T08:03:39;21.10;82.40
6439;DHT22;3252;52.540;13.290;2024-01-16T08:05:41;21.00;88.50
6439;DHT22;3252;52.540;13.290;2024-01-16T08:07:45;20.90;90.80
6439;DHT22;3252;52.540;13.290;2024-01-16T08:09:47;20.90;91.30
6439;DHT22;3252;52.540;13.290;2024-01-16T08:11:49;20.80;91.60
6439;DHT22;3252;52.540;13.290;2024-01-16T08:13:51;20.80;92.10
6439;DHT22;3252;52.540;13.290;2024-01-16T08:15:53;20.80;92.60
6439;DHT22;3252;52.540;13.290;2024-01-16T08:17:55;20.70;92.90
6439;DHT22;3252;52.540;13.290;2024-01-16T08:19:57;20.70;92.70
6439;DHT22;3252;52.540;13.290;2024-01-16T08:21:59;20.70;92.90
6439;DHT22;3252;52.540;13.290;2024-01-16T08:24:04;20.60;93.10
6439;DHT22;3252;52.540;13.290;2024-01-16T08:26:06;20.60;93.20
6439;DHT22;3252;52.540;13.290;2024-01-16T08:28:09;20.70;93.50
6439;DHT22;3252;52.540;13.290;2024-01-16T08:30:12;20.60;93.50
6439;DHT22;3252;52.540;13.290;2024-01-16T08:32:13;20.60;94.20
6439;DHT22;3252;52.540;13.290;2024-01-16T08:34:15;20.70;94.10
6439;DHT22;3252;52.540;13.290;2024-01-16T08:36:17;20.70;95.10
6439;DHT22;3252;52.540;13.290;2024-01-16T08:38:19;20.70;93.90
6439;DHT22;3252;52.540;13.290;2024-01-16T08:40:22;20.70;94.20
6439;DHT22;3252;52.540;13.290;2024-01-16T08:42:25;20.70;94.00
6439;DHT22;3252;52.540;13.290;2024-01-16T08:44:27;20.80;94.40
6439;DHT22;3252;52.540;13.290;2024-01-16T08:46:29;20.70;59.20
6439;DHT22;3252;52.540;13.290;2024-01-16T08:48:30;20.60;50.20
6439;DHT22;3252;52.540;13.290;2024-01-16T08:50:33;20.30;47.20
6439;DHT22;3252;52.540;13.290;2024-01-16T08:52:35;20.00;46.00
6439;DHT22;3252;52.540;13.290;2024-01-16T08:54:37;19.70;45.80
6439;DHT22;3252;52.540;13.290;2024-01-16T08:56:39;19.40;46.20
6439;DHT22;3252;52.540;13.290;2024-01-16T08:58:41;19.30;52.60
6439;DHT22;3252;52.540;13.290;2024-01-16T09:00:44;19.30;60.40
6439;DHT22;3252;52.540;13.290;2024-01-16T09:02:46;19.30;69.10
6439;DHT22;3252;52.540;13.290;2024-01-16T09:04:49;19.30;67.30
6439;DHT22;3252;52.540;13.290;2024-01-16T09:06:51;19.40;70.60
6439;DHT22;3252;52.540;13.290;2024-01-16T09:08:53;19.50;73.10
6439;DHT22;3252;52.540;13.290;2024-01-16T09:10:54;19.50;75.20
6439;DHT22;3252;52.540;13.290;2024-01-16T09:12:58;19.60;76.90
6439;DHT22;3252;52.540;13.290;2024-01-16T09:15:00;19.70;78.30
6439;DHT22;3252;52.540;13.290;2024-01-16T09:17:02;19.80;79.60
6439;DHT22;3252;52.540;13.290;2024-01-16T09:19:05;19.90;80.40
6439;DHT22;3252;52.540;13.290;2024-01-16T09:21:07;20.00;81.20
6439;DHT22;3252;52.540;13.290;2024-01-16T09:23:09;20.00;81.70
6439;DHT22;3252;52.540;13.290;2024-01-16T09:25:10;20.20;82.40
6439;DHT22;3252;52.540;13.290;2024-01-16T09:27:12;20.20;82.80
6439;DHT22;3252;52.540;13.290;2024-01-16T09:29:17;20.30;83.50
6439;DHT22;3252;52.540;13.290;2024-01-16T09:31:19;20.30;84.10
6439;DHT22;3252;52.540;13.290;2024-01-16T09:33:21;20.40;84.60
6439;DHT22;3252;52.540;13.290;2024-01-16T09:35:23;20.40;85.10
6439;DHT22;3252;52.540;13.290;2024-01-16T09:37:25;20.40;85.50
6439;DHT22;3252;52.540;13.290;2024-01-16T09:39:27;20.50;85.80
6439;DHT22;3252;52.540;13.290;2024-01-16T09:41:28;20.50;86.20
6439;DHT22;3252;52.540;13.290;2024-01-16T09:43:33;20.60;86.50
6439;DHT22;3252;52.540;13.290;2024-01-16T09:45:37;20.60;87.40
6439;DHT22;3252;52.540;13.290;2024-01-16T09:47:40;20.70;87.50
6439;DHT22;3252;52.540;13.290;2024-01-16T09:49:42;20.70;87.70
6439;DHT22;3252;52.540;13.290;2024-01-16T09:51:46;20.80;88.00
6439;DHT22;3252;52.540;13.290;2024-01-16T09:53:48;20.90;88.10
6439;DHT22;3252;52.540;13.290;2024-01-16T09:55:51;20.90;88.10
6439;DHT22;3252;52.540;13.290;2024-01-16T09:57:55;21.00;88.30
6439;DHT22;3252;52.540;13.290;2024-01-16T10:00:00;21.00;88.50
6439;DHT22;3252;52.540;13.290;2024-01-16T10:02:10;21.00;88.60
6439;DHT22;3252;52.540;13.290;2024-01-16T10:04:13;21.00;88.80
6439;DHT22;3252;52.540;13.290;2024-01-16T10:06:17;21.10;89.00
6439;DHT22;3252;52.540;13.290;2024-01-16T10:08:21;21.10;89.10
6439;DHT22;3252;52.540;13.290;2024-01-16T10:10:23;21.10;89.40
6439;DHT22;3252;52.540;13.290;2024-01-16T10:12:29;21.20;89.70
6439;DHT22;3252;52.540;13.290;2024-01-16T10:14:32;21.10;89.80
6439;DHT22;3252;52.540;13.290;2024-01-16T10:16:57;21.20;91.20
6439;DHT22;3252;52.540;13.290;2024-01-16T10:19:04;21.20;90.50
6439;DHT22;3252;52.540;13.290;2024-01-16T10:21:20;21.20;92.10
6439;DHT22;3252;52.540;13.290;2024-01-16T10:23:23;21.20;92.30
6439;DHT22;3252;52.540;13.290;2024-01-16T10:25:25;21.30;90.80
6439;DHT22;3252;52.540;13.290;2024-01-16T10:27:27;21.30;90.70
6439;DHT22;3252;52.540;13.290;2024-01-16T10:29:31;21.30;90.80
6439;DHT22;3252;52.540;13.290;2024-01-16T10:31:33;21.30;90.90
6439;DHT22;3252;52.540;13.290;2024-01-16T10:33:35;21.30;90.90
6439;DHT22;3252;52.540;13.290;2024-01-16T10:35:40;21.40;90.90
6439;DHT22;3252;52.540;13.290;2024-01-16T10:37:42;21.40;90.90
6439;DHT22;3252;52.540;13.290;2024-01-16T10:39:50;21.50;91.00
6439;DHT22;3252;52.540;13.290;2024-01-16T10:41:56;21.50;91.60
6439;DHT22;3252;52.540;13.290;2024-01-16T10:44:04;21.60;90.40
6439;DHT22;3252;52.540;13.290;2024-01-16T10:46:11;21.50;55.10
6439;DHT22;3252;52.540;13.290;2024-01-16T10:48:13;21.40;50.00
6439;DHT22;3252;52.540;13.290;2024-01-16T10:50:16;21.20;47.60
6439;DHT22;3252;52.540;13.290;2024-01-16T10:52:26;20.90;47.10
6439;DHT22;3252;52.540;13.290;2024-01-16T10:54:30;20.70;47.80
6439;DHT22;3252;52.540;13.290;2024-01-16T10:56:32;20.50;50.40
6439;DHT22;3252;52.540;13.290;2024-01-16T10:58:36;20.40;55.90
6439;DHT22;3252;52.540;13.290;2024-01-16T11:00:41;20.40;59.60
6439;DHT22;3252;52.540;13.290;2024-01-16T11:03:00;20.30;61.90
6439;DHT22;3252;52.540;13.290;2024-01-16T11:05:04;20.30;64.50
6439;DHT22;3252;52.540;13.290;2024-01-16T11:07:07;20.30;66.80
6439;DHT22;3252;52.540;13.290;2024-01-16T11:09:13;20.30;68.30
6439;DHT22;3252;52.540;13.290;2024-01-16T11:11:17;20.40;69.60
6439;DHT22;3252;52.540;13.290;2024-01-16T11:13:20;20.40;70.70
6439;DHT22;3252;52.540;13.290;2024-01-16T11:15:23;20.50;71.70
6439;DHT22;3252;52.540;13.290;2024-01-16T11:17:26;20.50;72.40
6439;DHT22;3252;52.540;13.290;2024-01-16T11:19:29;20.50;73.00
6439;DHT22;3252;52.540;13.290;2024-01-16T11:21:31;20.60;73.70
6439;DHT22;3252;52.540;13.290;2024-01-16T11:23:34;20.60;74.20
6439;DHT22;3252;52.540;13.290;2024-01-16T11:25:38;20.70;74.90
6439;DHT22;3252;52.540;13.290;2024-01-16T11:27:41;20.70;75.50
6439;DHT22;3252;52.540;13.290;2024-01-16T11:29:49;20.60;75.80
6439;DHT22;3252;52.540;13.290;2024-01-16T11:31:52;20.70;76.40
6439;DHT22;3252;52.540;13.290;2024-01-16T11:33:54;20.70;77.00
6439;DHT22;3252;52.540;13.290;2024-01-16T11:35:56;20.70;77.40
6439;DHT22;3252;52.540;13.290;2024-01-16T11:38:04;20.60;77.80
6439;DHT22;3252;52.540;13.290;2024-01-16T11:40:25;20.60;78.20
6439;DHT22;3252;52.540;13.290;2024-01-16T11:42:30;20.60;78.70
6439;DHT22;3252;52.540;13.290;2024-01-16T11:44:46;20.60;79.50
6439;DHT22;3252;52.540;13.290;2024-01-16T11:47:01;20.60;79.60
6439;DHT22;3252;52.540;13.290;2024-01-16T11:49:03;20.60;80.40
6439;DHT22;3252;52.540;13.290;2024-01-16T11:51:23;20.60;81.10
6439;DHT22;3252;52.540;13.290;2024-01-16T11:53:32;20.60;84.90
6439;DHT22;3252;52.540;13.290;2024-01-16T11:55:35;20.60;90.20
6439;DHT22;3252;52.540;13.290;2024-01-16T11:57:52;20.60;90.80
6439;DHT22;3252;52.540;13.290;2024-01-16T11:59:58;20.60;89.40
6439;DHT22;3252;52.540;13.290;2024-01-16T12:02:02;20.60;87.00
6439;DHT22;3252;52.540;13.290;2024-01-16T12:04:07;20.50;86.50
6439;DHT22;3252;52.540;13.290;2024-01-16T12:06:10;20.60;86.80
6439;DHT22;3252;52.540;13.290;2024-01-16T12:08:12;20.50;87.00
6439;DHT22;3252;52.540;13.290;2024-01-16T12:10:23;20.60;87.80
6439;DHT22;3252;52.540;13.290;2024-01-16T12:12:25;20.70;87.40
6439;DHT22;3252;52.540;13.290;2024-01-16T12:14:29;20.70;87.40
6439;DHT22;3252;52.540;13.290;2024-01-16T12:16:31;20.80;87.60
6439;DHT22;3252;52.540;13.290;2024-01-16T12:18:33;20.80;87.60
6439;DHT22;3252;52.540;13.290;2024-01-16T12:20:36;20.80;87.70
6439;DHT22;3252;52.540;13.290;2024-01-16T12:22:39;20.80;87.80
6439;DHT22;3252;52.540;13.290;2024-01-16T12:24:41;20.80;88.00
6439;DHT22;3252;52.540;13.290;2024-01-16T12:26:43;20.80;88.20
6439;DHT22;3252;52.540;13.290;2024-01-16T12:28:50;20.90;88.50
6439;DHT22;3252;52.540;13.290;2024-01-16T12:30:54;20.90;91.50
6439;DHT22;3252;52.540;13.290;2024-01-16T12:33:06;20.90;89.50
6439;DHT22;3252;52.540;13.290;2024-01-16T12:35:08;20.90;89.50
6439;DHT22;3252;52.540;13.290;2024-01-16T12:37:10;20.80;89.60
6439;DHT22;3252;52.540;13.290;2024-01-16T12:39:13;20.90;89.90
6439;DHT22;3252;52.540;13.290;2024-01-16T12:41:17;20.90;90.00
6439;DHT22;3252;52.540;13.290;2024-01-16T12:43:20;20.90;90.00
6439;DHT22;3252;52.540;13.290;2024-01-16T12:45:23;20.90;90.10
6439;DHT22;3252;52.540;13.290;2024-01-16T12:47:25;20.90;90.10
6439;DHT22;3252;52.540;13.290;2024-01-16T12:49:27;21.00;90.10
6439;DHT22;3252;52.540;13.290;2024-01-16T12:51:30;21.10;90.20
6439;DHT22;3252;52.540;13.290;2024-01-16T12:53:32;21.10;90.10
6439;DHT22;3252;52.540;13.290;2024-01-16T12:55:38;21.20;90.10
6439;DHT22;3252;52.540;13.290;2024-01-16T12:57:40;21.20;90.00
6439;DHT22;3252;52.540;13.290;2024-01-16T12:59:41;21.30;90.00
6439;DHT22;3252;52.540;13.290;2024-01-16T13:01:44;21.30;90.70
6439;DHT22;3252;52.540;13.290;2024-01-16T13:03:49;21.30;90.20
6439;DHT22;3252;52.540;13.290;2024-01-16T13:05:55;21.30;90.30
6439;DHT22;3252;52.540;13.290;2024-01-16T13:08:00;21.30;90.30
6439;DHT22;3252;52.540;13.290;2024-01-16T13:10:10;21.40;90.40